Time;durP1;ratioP1;P1;durP2;ratioP2;P2;SDS_P1;SDS_P2;PMS_P1;PMS_P2;Temp;Humidity;BMP_temperature;BMP_pressure;BME280_temperature;BME280_humidity;BME280_pressure;Samples;Min_cycle;Max_cycle;Signal;HPM_P1;HPM_P2
2021/04/07 00:01:16;;;;;;;5.70;2.22;;;;;;;0.14;96.39;100691.88;6296584;28;20543;-72
2021/04/07 00:04:17;;;;;;;12.85;2.83;;;;;;;0.25;96.35;100698.63;6296633;28;20049;-72
2021/04/07 00:07:17;;;;;;;11.57;2.63;;;;;;;0.05;96.19;100704.91;6296964;28;20053;-72
2021/04/07 00:10:21;;;;;;;10.48;2.78;;;;;;;0.03;96.44;100683.38;6296515;28;20473;-72
2021/04/07 00:13:23;;;;;;;14.15;3.35;;;;;;;0.02;96.15;100695.44;6296717;28;20082;-72
2021/04/07 00:16:24;;;;;;;12.88;3.35;;;;;;;0.00;96.50;100697.19;6296589;28;20052;-73
2021/04/07 00:19:25;;;;;;;10.68;3.05;;;;;;;0.08;96.23;100689.34;6296448;28;20098;-72
2021/04/07 00:22:26;;;;;;;14.50;3.22;;;;;;;0.02;96.44;100690.28;6296279;28;20482;-72
2021/04/07 00:25:27;;;;;;;9.60;3.35;;;;;;;0.04;96.04;100688.53;6289377;28;20044;-72
2021/04/07 00:28:29;;;;;;;10.07;3.33;;;;;;;0.19;95.40;100692.69;6296204;28;20102;-72
2021/04/07 00:31:30;;;;;;;14.35;3.03;;;;;;;0.01;95.48;100683.41;6296072;28;20086;-72
2021/04/07 00:34:32;;;;;;;10.98;2.83;;;;;;;-0.02;95.96;100694.63;6296155;28;20501;-72
2021/04/07 00:37:36;;;;;;;12.43;2.70;;;;;;;0.11;96.13;100692.75;6296107;28;20493;-72
2021/04/07 00:40:38;;;;;;;15.80;2.55;;;;;;;-0.02;95.83;100691.19;6296325;28;20528;-72
2021/04/07 00:43:39;;;;;;;13.82;3.03;;;;;;;0.01;95.71;100700.63;6295906;28;20437;-72
2021/04/07 00:46:40;;;;;;;16.70;3.10;;;;;;;-0.09;95.88;100702.44;6296088;28;20049;-72
2021/04/07 00:49:41;;;;;;;8.93;2.75;;;;;;;0.00;95.78;100712.69;6296246;28;20429;-72
2021/04/07 00:52:42;;;;;;;13.18;2.00;;;;;;;-0.06;96.30;100715.31;6295664;28;20642;-72
2021/04/07 00:55:45;;;;;;;8.55;2.17;;;;;;;-0.09;95.80;100715.34;6296118;28;20181;-72
2021/04/07 00:58:47;;;;;;;17.00;2.67;;;;;;;-0.18;96.51;100716.31;6295929;28;20059;-73
2021/04/07 01:01:49;;;;;;;8.73;2.38;;;;;;;-0.26;97.19;100721.56;6300361;28;20084;-73
2021/04/07 01:04:51;;;;;;;10.52;2.17;;;;;;;0.05;96.16;100726.41;6300899;28;20515;-72
2021/04/07 01:07:54;;;;;;;8.55;2.22;;;;;;;-0.22;96.22;100719.81;6301069;28;20060;-72
2021/04/07 01:10:55;;;;;;;6.88;2.20;;;;;;;-0.28;96.49;100720.69;6300696;28;20057;-72
2021/04/07 01:13:57;;;;;;;9.82;1.98;;;;;;;-0.29;96.76;100726.75;6301064;28;20131;-72
2021/04/07 01:16:58;;;;;;;16.80;3.03;;;;;;;-0.20;96.94;100730.97;6300944;28;20052;-71
2021/04/07 01:20:00;;;;;;;19.48;2.80;;;;;;;-0.14;97.09;100720.56;6300712;28;20048;-72
2021/04/07 01:23:03;;;;;;;19.65;2.47;;;;;;;-0.16;96.66;100718.88;6300396;28;20072;-72
2021/04/07 01:26:04;;;;;;;13.73;2.78;;;;;;;-0.14;97.12;100732.63;6300453;28;20048;-72
2021/04/07 01:29:06;;;;;;;14.57;2.60;;;;;;;-0.16;97.05;100727.47;6300596;28;20044;-72
2021/04/07 01:32:07;;;;;;;19.63;2.53;;;;;;;-0.33;97.79;100726.78;6300174;28;20055;-72
2021/04/07 01:35:09;;;;;;;13.85;2.80;;;;;;;-0.25;97.61;100730.16;6300286;28;20144;-72
2021/04/07 01:38:10;;;;;;;20.92;3.80;;;;;;;-0.22;96.79;100724.13;6300194;28;20507;-71
2021/04/07 01:41:12;;;;;;;14.15;2.60;;;;;;;-0.20;97.41;100719.78;6299902;28;20053;-72
2021/04/07 01:44:16;;;;;;;23.02;3.47;;;;;;;-0.33;97.06;100714.72;6300053;28;20048;-71
2021/04/07 01:47:17;;;;;;;22.85;3.25;;;;;;;-0.33;97.24;100708.72;6299970;28;20048;-71
2021/04/07 01:50:17;;;;;;;15.60;2.90;;;;;;;-0.41;96.83;100706.22;6299922;28;20051;-71
2021/04/07 01:53:19;;;;;;;14.10;1.83;;;;;;;-0.27;97.08;100719.84;6299765;28;20049;-71
2021/04/07 01:56:21;;;;;;;13.18;2.33;;;;;;;-0.37;96.51;100718.19;6299932;28;20045;-71
2021/04/07 01:59:24;;;;;;;20.95;2.30;;;;;;;-0.49;97.81;100717.47;6299683;28;20052;-71
2021/04/07 02:02:25;;;;;;;21.45;2.22;;;;;;;-0.45;97.36;100714.00;6299504;28;20045;-72
2021/04/07 02:05:26;;;;;;;10.52;2.22;;;;;;;-0.34;96.20;100718.19;6299477;28;20574;-72
2021/04/07 02:08:27;;;;;;;10.75;1.67;;;;;;;-0.32;96.24;100723.31;6299632;28;20048;-71
2021/04/07 02:11:28;;;;;;;16.17;2.30;;;;;;;-0.57;97.32;100725.28;6298748;28;20169;-72
2021/04/07 02:14:30;;;;;;;16.50;2.47;;;;;;;-0.56;96.72;100727.81;6299400;28;20056;-72
2021/04/07 02:17:30;;;;;;;15.63;3.00;;;;;;;-0.55;96.58;100734.69;6299477;28;20045;-72
2021/04/07 02:20:31;;;;;;;9.15;1.80;;;;;;;-0.49;95.76;100723.50;6299474;28;20052;-72
2021/04/07 02:23:33;;;;;;;15.27;2.22;;;;;;;-0.60;96.60;100731.31;6299034;28;20105;-72
2021/04/07 02:26:34;;;;;;;16.55;2.45;;;;;;;-0.62;97.46;100735.63;6298980;28;20052;-71
2021/04/07 02:29:35;;;;;;;14.55;2.95;;;;;;;-0.65;97.20;100733.06;6299047;28;20048;-72
2021/04/07 02:32:36;;;;;;;18.25;2.17;;;;;;;-0.66;97.47;100733.94;6298704;28;20051;-72
2021/04/07 02:35:37;;;;;;;14.48;2.50;;;;;;;-0.67;97.90;100734.81;6298777;28;20052;-72
2021/04/07 02:41:48;;;;;;;;;;;;;;;-0.81;98.89;100746.97;6299076;28;20186;-72
2021/04/07 02:44:49;;;;;;;18.30;3.38;;;;;;;-0.86;98.86;100744.41;6298594;28;19924;-72
2021/04/07 02:47:50;;;;;;;15.35;3.47;;;;;;;-0.93;99.29;100745.31;6298937;28;20053;-72
2021/04/07 02:50:50;;;;;;;16.17;3.67;;;;;;;-0.90;98.55;100740.13;6298205;28;20076;-72
2021/04/07 02:53:51;;;;;;;23.95;4.10;;;;;;;-0.89;98.82;100744.41;6298490;28;20497;-72
2021/04/07 02:56:53;;;;;;;15.27;2.85;;;;;;;-0.95;99.34;100751.31;6298306;28;20080;-72
2021/04/07 02:59:54;;;;;;;21.65;3.90;;;;;;;-1.00;99.50;100746.19;6298242;28;20542;-72
2021/04/07 03:02:55;;;;;;;16.33;3.50;;;;;;;-1.02;99.75;100742.78;6298278;28;20052;-72
2021/04/07 03:05:56;;;;;;;21.00;3.42;;;;;;;-0.86;98.94;100751.31;6297984;28;20131;-72
2021/04/07 03:08:57;;;;;;;12.45;3.30;;;;;;;-0.96;99.34;100765.94;6298232;28;20052;-72
2021/04/07 03:11:59;;;;;;;9.10;2.83;;;;;;;-0.86;98.20;100764.19;6297775;28;20044;-72
2021/04/07 03:14:59;;;;;;;12.70;2.67;;;;;;;-1.01;98.88;100762.53;6298139;28;20051;-72
2021/04/07 03:18:00;;;;;;;16.55;2.92;;;;;;;-1.10;99.62;100771.19;6297782;28;20557;-71
2021/04/07 03:21:01;;;;;;;19.63;3.88;;;;;;;-1.12;99.43;100762.63;6297692;28;20497;-72
2021/04/07 03:24:03;;;;;;;20.08;3.85;;;;;;;-1.16;100.00;100758.34;6296738;28;20052;-72
2021/04/07 03:27:05;;;;;;;20.00;3.03;;;;;;;-1.03;100.00;100753.97;6297531;28;20094;-71
2021/04/07 03:30:07;;;;;;;19.13;3.75;;;;;;;-0.96;98.84;100765.09;6297663;28;20056;-72
2021/04/07 03:33:08;;;;;;;21.70;3.15;;;;;;;-1.13;99.43;100760.91;6297137;28;20048;-71
2021/04/07 03:36:10;;;;;;;12.35;2.92;;;;;;;-1.18;99.57;100761.78;6297448;28;20080;-73
2021/04/07 03:39:11;;;;;;;9.85;2.33;;;;;;;-1.22;99.79;100763.53;6297219;28;20186;-72
2021/04/07 03:42:12;;;;;;;18.90;2.50;;;;;;;-1.26;100.00;100760.97;6297366;28;20074;-72
2021/04/07 03:45:14;;;;;;;15.52;3.40;;;;;;;-1.26;99.90;100756.69;6321827;22;20043;-77
2021/04/07 03:48:16;;;;;;;10.23;2.15;;;;;;;-1.18;100.00;100752.34;6322290;28;20059;-75
2021/04/07 03:51:17;;;;;;;16.75;2.53;;;;;;;-1.26;100.00;100753.25;6339629;28;20051;-76
2021/04/07 03:54:18;;;;;;;13.02;2.60;;;;;;;-1.23;100.00;100751.47;6339883;28;20054;-78
2021/04/07 03:57:20;;;;;;;20.17;2.42;;;;;;;-1.21;100.00;100754.06;6322014;28;20048;-78
2021/04/07 04:00:21;;;;;;;12.25;2.90;;;;;;;-1.21;99.70;100757.50;6321953;28;20077;-76
2021/04/07 04:03:23;;;;;;;24.60;3.03;;;;;;;-1.26;99.95;100758.41;6321837;28;20048;-77
2021/04/07 04:06:24;;;;;;;13.65;2.60;;;;;;;-1.22;99.62;100760.09;6321696;28;20044;-78
2021/04/07 04:09:25;;;;;;;24.48;2.50;;;;;;;-1.31;100.00;100754.13;6321953;28;20110;-77
2021/04/07 04:12:27;;;;;;;20.40;3.40;;;;;;;-1.33;99.93;100758.41;6321585;28;20044;-76
2021/04/07 04:15:27;;;;;;;19.30;2.80;;;;;;;-1.31;100.00;100750.69;6321899;28;20511;-76
2021/04/07 04:18:28;;;;;;;18.30;2.88;;;;;;;-1.33;100.00;100761.00;6321501;28;20048;-78
2021/04/07 04:21:29;;;;;;;17.45;2.70;;;;;;;-1.34;100.00;100764.44;6321223;28;20075;-77
2021/04/07 04:24:30;;;;;;;15.90;3.10;;;;;;;-1.28;100.00;100768.69;6321703;28;20079;-78
2021/04/07 04:27:32;;;;;;;9.23;2.08;;;;;;;-0.90;99.43;100772.81;6334583;28;20059;-76
2021/04/07 04:30:33;;;;;;;20.45;3.38;;;;;;;-1.03;99.60;100775.47;6346701;28;20088;-76
2021/04/07 04:33:34;;;;;;;19.08;3.13;;;;;;;-0.96;99.61;100780.56;6346326;28;20048;-77
2021/04/07 04:36:35;;;;;;;17.35;4.07;;;;;;;-0.87;99.81;100776.22;6346479;28;20048;-76
2021/04/07 04:39:36;;;;;;;14.70;2.60;;;;;;;-0.87;98.51;100777.94;6346571;28;20109;-78
2021/04/07 04:42:38;;;;;;;20.15;2.35;;;;;;;-0.87;98.90;100781.38;6346454;28;20438;-78
2021/04/07 04:45:39;;;;;;;8.70;2.00;;;;;;;-0.62;98.59;100782.09;6346212;28;20086;-76
2021/04/07 04:48:39;;;;;;;14.25;3.33;;;;;;;-0.62;97.72;100776.91;6346515;28;20044;-76
2021/04/07 04:51:40;;;;;;;11.50;2.30;;;;;;;-0.60;97.98;100777.75;6346130;28;20104;-76
2021/04/07 04:54:41;;;;;;;17.73;2.50;;;;;;;-0.41;97.89;100780.19;6346681;28;20047;-75
2021/04/07 04:57:43;;;;;;;12.02;2.53;;;;;;;-0.46;97.53;100779.38;6346119;28;20104;-76
2021/04/07 05:00:44;;;;;;;39.72;3.30;;;;;;;-0.47;97.61;100777.66;6346043;28;20051;-76
2021/04/07 05:03:44;;;;;;;9.93;2.38;;;;;;;-0.32;97.57;100778.44;6346223;28;20055;-76
2021/04/07 05:06:45;;;;;;;17.05;2.38;;;;;;;-0.18;97.06;100769.66;6346136;28;20051;-75
2021/04/07 05:09:46;;;;;;;22.17;2.85;;;;;;;-0.23;97.32;100768.84;6346388;28;20051;-76
2021/04/07 05:12:48;;;;;;;14.13;2.13;;;;;;;-0.30;97.47;100775.81;6345863;28;20188;-76
2021/04/07 05:15:49;;;;;;;8.48;2.35;;;;;;;-0.17;97.79;100776.56;6346280;28;20063;-76
2021/04/07 05:18:50;;;;;;;15.35;2.05;;;;;;;-0.33;96.93;100781.84;6346087;28;20082;-76
2021/04/07 05:21:51;;;;;;;6.38;1.75;;;;;;;-0.27;96.87;100789.56;6345765;28;20134;-77
2021/04/07 05:24:52;;;;;;;15.73;2.50;;;;;;;-0.29;96.88;100793.00;6345765;28;20083;-76
2021/04/07 05:27:53;;;;;;;15.90;2.72;;;;;;;-0.38;97.49;100791.38;6345951;28;20047;-76
2021/04/07 05:31:01;;;;;;;14.02;2.45;;;;;;;-0.35;98.37;100800.81;6345834;28;20055;-76
2021/04/07 05:34:02;;;;;;;16.15;2.20;;;;;;;-0.28;97.69;100792.13;6345907;28;20054;-76
2021/04/07 05:37:03;;;;;;;13.30;2.55;;;;;;;-0.28;97.23;100800.75;6345933;28;20500;-76
2021/04/07 05:40:05;;;;;;;16.80;2.60;;;;;;;-0.14;96.97;100803.19;6345785;28;20055;-76
2021/04/07 05:43:07;;;;;;;11.48;2.55;;;;;;;-0.31;96.68;100808.53;6345666;28;20050;-74
2021/04/07 05:46:09;;;;;;;15.40;2.50;;;;;;;0.03;96.03;100791.88;6347000;28;20047;-76
2021/04/07 05:49:10;;;;;;;10.45;3.08;;;;;;;-0.19;96.17;100804.97;6350778;28;20055;-76
2021/04/07 05:52:10;;;;;;;15.68;3.28;;;;;;;-0.13;96.92;100799.78;6349179;28;20135;-75
2021/04/07 05:55:12;;;;;;;23.02;3.15;;;;;;;-0.21;96.92;100808.47;6350200;28;20051;-76
2021/04/07 05:58:15;;;;;;;15.45;3.42;;;;;;;-0.12;95.99;100816.13;6350261;28;20051;-76
2021/04/07 06:01:16;;;;;;;23.70;3.42;;;;;;;-0.11;96.47;100821.28;6349802;28;20488;-76
2021/04/07 06:04:17;;;;;;;18.45;3.40;;;;;;;-0.01;95.60;100816.88;6350330;28;20048;-76
2021/04/07 06:07:17;;;;;;;14.25;3.05;;;;;;;-0.06;95.08;100827.25;6349877;28;20075;-75
2021/04/07 06:10:19;;;;;;;16.60;3.00;;;;;;;-0.09;96.79;100829.88;6350021;28;20130;-75
2021/04/07 06:13:21;;;;;;;16.10;2.65;;;;;;;0.10;96.53;100827.97;6349776;28;20055;-78
2021/04/07 06:16:22;;;;;;;7.07;2.83;;;;;;;-0.02;96.00;100828.94;6349597;28;20159;-76
2021/04/07 06:19:22;;;;;;;6.05;3.08;;;;;;;0.41;94.55;100825.97;6349770;28;20040;-76
2021/04/07 06:22:23;;;;;;;15.52;3.63;;;;;;;0.08;95.27;100836.59;6349542;28;20132;-75
2021/04/07 06:25:26;;;;;;;14.35;3.75;;;;;;;0.08;95.90;100828.84;6342299;28;20047;-76
2021/04/07 06:28:27;;;;;;;15.88;3.72;;;;;;;0.16;95.39;100834.81;6333341;28;20040;-75
2021/04/07 06:31:28;;;;;;;11.20;3.53;;;;;;;0.19;95.87;100835.66;6349223;28;20051;-75
2021/04/07 06:34:29;;;;;;;11.75;4.50;;;;;;;0.16;95.41;100835.66;6349597;28;20047;-76
2021/04/07 06:37:30;;;;;;;9.68;5.47;;;;;;;0.27;95.44;100826.94;6349342;28;20480;-76
2021/04/07 06:40:31;;;;;;;17.70;4.68;;;;;;;0.45;95.59;100819.84;6349056;28;20058;-78
2021/04/07 06:43:34;;;;;;;15.63;5.28;;;;;;;0.30;95.46;100820.03;6349245;28;20048;-76
2021/04/07 06:46:35;;;;;;;19.80;5.53;;;;;;;0.56;94.64;100826.66;6348849;28;20056;-76
2021/04/07 06:49:40;;;;;;;21.25;6.15;;;;;;;0.46;95.62;100828.50;6349552;28;20096;-77
2021/04/07 06:52:43;;;;;;;20.42;6.40;;;;;;;0.53;94.45;100827.53;6348820;28;20044;-76
2021/04/07 06:55:45;;;;;;;15.95;5.97;;;;;;;0.69;94.24;100828.25;6349091;28;20054;-76
2021/04/07 06:58:47;;;;;;;18.13;6.60;;;;;;;0.78;94.87;100822.09;6348769;28;20051;-76
2021/04/07 07:01:48;;;;;;;19.27;6.72;;;;;;;0.86;93.10;100833.19;6340504;28;20048;-77
2021/04/07 07:04:50;;;;;;;13.48;5.93;;;;;;;0.74;94.40;100821.28;6325796;28;20052;-76
2021/04/07 07:07:51;;;;;;;15.95;5.97;;;;;;;0.68;94.62;100819.63;6328436;28;20059;-76
2021/04/07 07:10:53;;;;;;;19.98;6.10;;;;;;;0.77;95.94;100813.47;6322919;28;20051;-76
2021/04/07 07:13:55;;;;;;;13.07;6.05;;;;;;;0.91;95.61;100813.28;6323117;28;20044;-76
2021/04/07 07:16:56;;;;;;;18.95;5.30;;;;;;;1.16;92.79;100819.88;6323087;28;20489;-75
2021/04/07 07:19:58;;;;;;;14.50;5.20;;;;;;;1.08;93.79;100826.03;6344897;28;20488;-76
2021/04/07 07:22:59;;;;;;;14.50;5.22;;;;;;;0.95;93.74;100812.38;6347963;28;20484;-77
2021/04/07 07:26:03;;;;;;;19.70;5.97;;;;;;;1.02;93.35;100824.38;6340138;28;20058;-77
2021/04/07 07:29:08;;;;;;;12.63;4.63;;;;;;;1.25;92.89;100822.34;6331358;28;20435;-76
2021/04/07 07:32:11;;;;;;;15.00;4.68;;;;;;;1.11;93.12;100820.81;6331726;28;20044;-75
2021/04/07 07:35:14;;;;;;;9.95;4.65;;;;;;;1.26;93.69;100829.22;6322657;28;20059;-75
2021/04/07 07:38:23;;;;;;;11.30;4.70;;;;;;;1.46;92.25;100826.34;6322542;28;20051;-76
2021/04/07 07:41:26;;;;;;;10.82;4.75;;;;;;;1.49;91.57;100834.06;6322428;28;20044;-76
2021/04/07 07:44:29;;;;;;;20.90;5.30;;;;;;;1.22;93.36;100835.31;6322282;28;20051;-76
2021/04/07 07:47:33;;;;;;;15.05;5.80;;;;;;;1.27;92.63;100837.84;6322236;28;20109;-75
2021/04/07 07:50:36;;;;;;;13.82;5.57;;;;;;;1.20;94.06;100839.66;6322332;28;20047;-75
2021/04/07 07:53:37;;;;;;;13.15;5.68;;;;;;;1.14;94.14;100837.16;6321755;28;20044;-75
2021/04/07 07:56:38;;;;;;;13.90;5.72;;;;;;;1.25;93.22;100844.78;6321072;28;20055;-75
2021/04/07 07:59:40;;;;;;;17.70;5.30;;;;;;;1.38;93.73;100846.31;6321015;28;20044;-75
2021/04/07 08:02:41;;;;;;;12.30;5.20;;;;;;;1.45;94.26;100845.38;6321818;28;20056;-75
2021/04/07 08:05:43;;;;;;;10.70;5.47;;;;;;;1.46;93.99;100849.66;6321745;28;20051;-77
2021/04/07 08:08:44;;;;;;;13.23;4.65;;;;;;;1.68;92.26;100852.81;6321609;28;20048;-75
2021/04/07 08:11:46;;;;;;;12.60;4.45;;;;;;;1.51;93.55;100858.22;6321544;28;20048;-74
2021/04/07 08:14:48;;;;;;;9.35;3.90;;;;;;;1.61;92.25;100846.00;6322019;28;20048;-75
2021/04/07 08:17:49;;;;;;;7.80;4.90;;;;;;;1.81;93.38;100847.41;6321677;28;20062;-75
2021/04/07 08:20:51;;;;;;;6.88;3.92;;;;;;;1.70;93.37;100847.59;6321589;28;20078;-74
2021/04/07 08:23:55;;;;;;;9.95;4.45;;;;;;;1.97;91.72;100843.69;6321873;28;20056;-74
2021/04/07 08:26:57;;;;;;;9.88;4.68;;;;;;;1.86;92.32;100850.78;6321318;28;20055;-74
2021/04/07 08:29:59;;;;;;;8.05;4.07;;;;;;;2.08;91.19;100848.69;6321534;28;20420;-75
2021/04/07 08:33:00;;;;;;;11.82;5.20;;;;;;;1.89;92.88;100853.34;6321350;28;20090;-76
2021/04/07 08:36:02;;;;;;;9.68;4.50;;;;;;;2.05;91.11;100852.22;6329701;28;20530;-76
2021/04/07 08:39:06;;;;;;;9.88;5.28;;;;;;;2.06;91.69;100853.06;6338660;28;20039;-75
2021/04/07 08:42:09;;;;;;;11.48;4.55;;;;;;;1.97;92.32;100867.88;6337794;28;20051;-78
2021/04/07 08:45:13;;;;;;;8.20;3.92;;;;;;;2.04;91.26;100860.84;6346197;28;20100;-78
2021/04/07 08:48:19;;;;;;;9.80;4.05;;;;;;;2.20;90.59;100859.72;6346319;28;20051;-78
2021/04/07 08:51:23;;;;;;;9.68;3.80;;;;;;;2.26;90.36;100849.22;6346155;28;20051;-75
2021/04/07 08:54:24;;;;;;;4.88;3.63;;;;;;;2.41;88.98;100863.69;6346634;28;20047;-77
2021/04/07 08:57:30;;;;;;;5.13;3.22;;;;;;;2.45;88.80;100862.75;6346138;28;20048;-76
2021/04/07 09:00:34;;;;;;;6.85;3.60;;;;;;;2.51;88.30;100862.63;6333696;28;20504;-75
2021/04/07 09:03:42;;;;;;;7.47;3.13;;;;;;;2.47;89.11;100866.16;6318966;28;20048;-75
2021/04/07 09:06:57;;;;;;;7.53;2.92;;;;;;;2.47;86.16;100858.38;6319231;28;20052;-75
2021/04/07 09:10:08;;;;;;;5.93;3.08;;;;;;;2.58;86.12;100865.94;6320999;28;20051;-75
2021/04/07 09:13:11;;;;;;;4.55;2.97;;;;;;;2.69;86.41;100870.97;6319768;28;20063;-75
2021/04/07 09:16:12;;;;;;;5.10;2.75;;;;;;;2.82;84.08;100872.44;6320839;28;20433;-76
2021/04/07 09:19:19;;;;;;;5.43;2.70;;;;;;;2.80;84.23;100874.19;6320629;28;20093;-76
2021/04/07 09:22:21;;;;;;;4.13;2.70;;;;;;;2.63;85.66;100866.72;6323649;28;20048;-76
2021/04/07 09:25:31;;;;;;;5.22;2.63;;;;;;;2.76;85.55;100881.16;6325330;28;20062;-75
2021/04/07 09:28:35;;;;;;;5.63;2.90;;;;;;;2.48;87.29;100874.78;6325615;28;20048;-76
2021/04/07 09:31:39;;;;;;;5.43;3.05;;;;;;;2.59;85.54;100885.84;6324883;28;20048;-76
2021/04/07 09:34:40;;;;;;;6.32;3.28;;;;;;;2.47;86.16;100876.53;6324825;28;20048;-75
2021/04/07 09:37:41;;;;;;;5.15;3.30;;;;;;;2.54;86.47;100885.03;6325174;28;20078;-75
2021/04/07 09:40:41;;;;;;;8.15;3.05;;;;;;;2.66;87.19;100874.44;6324490;28;20052;-75
2021/04/07 09:43:42;;;;;;;7.93;3.05;;;;;;;2.77;85.72;100882.03;6324872;28;20052;-75
2021/04/07 09:46:51;;;;;;;6.38;2.95;;;;;;;2.99;84.63;100875.53;6335569;22;20051;-84
2021/04/07 09:49:52;;;;;;;4.47;2.80;;;;;;;2.89;85.13;100874.00;6299848;28;20097;-83
2021/04/07 09:52:53;;;;;;;4.72;2.78;;;;;;;2.93;84.73;100864.44;6322344;28;20131;-80
2021/04/07 09:55:59;;;;;;;5.35;2.75;;;;;;;2.95;85.75;100870.44;6311443;28;20064;-81
2021/04/07 09:59:00;;;;;;;4.13;2.85;;;;;;;3.04;86.00;100871.13;6299564;28;20049;-81
2021/04/07 10:02:03;;;;;;;5.75;3.10;;;;;;;3.08;85.52;100876.22;6300994;28;20509;-81
2021/04/07 10:05:04;;;;;;;5.30;2.75;;;;;;;3.27;85.27;100872.34;6315388;28;20052;-80
2021/04/07 10:08:12;;;;;;;5.57;3.50;;;;;;;3.63;84.41;100875.91;6299358;28;20048;-81
2021/04/07 10:11:13;;;;;;;4.80;2.97;;;;;;;3.44;84.49;100864.22;6307059;28;20080;-71
2021/04/07 10:14:16;;;;;;;6.68;3.20;;;;;;;3.60;84.86;100867.34;6301647;28;20044;-81
2021/04/07 10:17:20;;;;;;;3.45;2.58;;;;;;;3.36;85.13;100876.50;6307016;28;20458;-81
2021/04/07 10:20:28;;;;;;;4.97;3.17;;;;;;;3.46;85.11;100878.03;6299284;28;20044;-81
2021/04/07 10:23:29;;;;;;;5.78;2.83;;;;;;;3.42;83.94;100877.25;6301392;28;20052;-82
2021/04/07 10:26:30;;;;;;;4.57;3.00;;;;;;;3.66;83.13;100880.19;6318846;28;20044;-82
2021/04/07 10:29:33;;;;;;;3.80;2.92;;;;;;;3.77;82.71;100885.97;6310362;28;20044;-85
2021/04/07 10:32:43;;;;;;;6.38;2.35;;;;;;;3.77;83.36;100881.66;6305733;28;20417;-80
2021/04/07 10:35:44;;;;;;;6.30;2.85;;;;;;;3.67;82.94;100895.72;6311025;28;20504;-79
2021/04/07 10:38:46;;;;;;;2.90;2.20;;;;;;;3.41;83.01;100890.28;6308642;28;20056;-79
2021/04/07 10:41:48;;;;;;;3.70;2.75;;;;;;;3.56;82.99;100897.72;6309367;28;20044;-81
2021/04/07 10:44:59;;;;;;;3.85;2.40;;;;;;;3.60;82.70;100895.94;6306373;28;20040;-80
2021/04/07 10:48:03;;;;;;;4.25;2.53;;;;;;;3.82;82.73;100897.16;6308065;28;20048;-80
2021/04/07 10:51:04;;;;;;;2.33;1.70;;;;;;;3.83;82.47;100892.81;6307633;28;20048;-79
2021/04/07 10:54:09;;;;;;;3.92;2.42;;;;;;;4.06;82.11;100883.56;6311106;28;20052;-80
2021/04/07 10:57:11;;;;;;;3.40;2.30;;;;;;;4.33;80.00;100888.97;6309808;28;20043;-81
2021/04/07 11:00:25;;;;;;;3.58;2.22;;;;;;;4.39;80.24;100880.16;6311845;28;20215;-82
2021/04/07 11:03:31;;;;;;;2.70;2.30;;;;;;;4.58;78.92;100878.75;6296526;28;20045;-82
2021/04/07 11:06:32;;;;;;;4.75;2.20;;;;;;;4.72;78.88;100883.59;6300922;28;20177;-78
2021/04/07 11:09:34;;;;;;;4.05;2.50;;;;;;;4.97;78.48;100879.44;6309983;28;20052;-79
2021/04/07 11:12:35;;;;;;;6.47;2.65;;;;;;;4.75;77.40;100886.13;6307966;28;20048;-79
2021/04/07 11:15:36;;;;;;;5.65;2.08;;;;;;;4.92;77.24;100878.72;6307491;28;20420;-78
2021/04/07 11:18:39;;;;;;;3.85;2.28;;;;;;;4.74;79.16;100884.44;6305766;28;20055;-79
2021/04/07 11:21:40;;;;;;;8.07;2.10;;;;;;;4.81;79.92;100888.56;6308861;28;20135;-81
2021/04/07 11:24:41;;;;;;;2.83;1.92;;;;;;;4.50;80.62;100891.16;6308488;28;20048;-81
2021/04/07 11:27:42;;;;;;;3.10;2.03;;;;;;;4.32;81.30;100893.31;6310968;28;20559;-86
2021/04/07 11:30:55;;;;;;;7.15;2.30;;;;;;;4.49;82.96;100892.03;6309257;28;20680;-84
2021/04/07 11:34:00;;;;;;;5.90;2.67;;;;;;;4.33;82.89;100901.97;6307148;28;20044;-79
2021/04/07 11:37:08;;;;;;;5.30;2.75;;;;;;;4.40;83.96;100889.66;6306872;28;20135;-79
2021/04/07 11:40:20;;;;;;;9.57;2.67;;;;;;;4.40;83.53;100887.06;6307271;28;20056;-83
2021/04/07 11:43:24;;;;;;;6.50;2.88;;;;;;;4.50;84.99;100889.41;6299463;28;20055;-80
2021/04/07 11:46:25;;;;;;;6.90;3.00;;;;;;;4.67;85.25;100898.50;6305898;28;20052;-83
2021/04/07 11:49:27;;;;;;;6.10;2.97;;;;;;;4.23;86.59;100897.91;6310369;28;20053;-81
2021/04/07 11:52:31;;;;;;;8.02;3.30;;;;;;;4.25;87.20;100903.91;6307551;28;20056;-82
2021/04/07 11:55:32;;;;;;;6.03;2.65;;;;;;;4.31;86.99;100896.81;6310324;28;20052;-82
2021/04/07 11:58:33;;;;;;;5.72;3.00;;;;;;;4.60;85.44;100883.94;6309507;28;20062;-81
2021/04/07 12:01:34;;;;;;;5.57;2.55;;;;;;;4.45;85.84;100885.19;6316139;28;20054;-82
2021/04/07 12:04:36;;;;;;;8.13;3.22;;;;;;;4.41;86.75;100879.22;6313459;28;20047;-84
2021/04/07 12:07:37;;;;;;;7.20;2.83;;;;;;;4.50;87.02;100881.59;6321872;28;20075;-84
2021/04/07 12:10:38;;;;;;;4.28;3.22;;;;;;;4.42;87.19;100878.31;6322128;28;20051;-82
2021/04/07 12:13:40;;;;;;;7.88;2.75;;;;;;;4.32;87.91;100888.13;6321750;28;20072;-82
2021/04/07 12:16:41;;;;;;;7.50;3.65;;;;;;;4.26;89.25;100879.59;6321950;28;20131;-82
2021/04/07 12:19:43;;;;;;;10.77;3.70;;;;;;;4.32;90.22;100876.88;6321732;28;20401;-83
2021/04/07 12:22:45;;;;;;;9.18;3.70;;;;;;;4.33;93.18;100886.38;6321640;28;20052;-84
2021/04/07 12:25:46;;;;;;;24.15;4.80;;;;;;;4.24;94.29;100897.84;6307557;28;20185;-81
2021/04/07 12:28:47;;;;;;;13.95;4.93;;;;;;;4.23;95.84;100906.56;6320986;28;20083;-80
2021/04/07 12:31:48;;;;;;;12.25;4.10;;;;;;;4.07;98.82;100918.22;6313405;28;20131;-80
2021/04/07 12:34:50;;;;;;;8.55;3.63;;;;;;;4.04;100.00;100903.56;6303663;28;20040;-79
2021/04/07 12:37:51;;;;;;;8.10;3.42;;;;;;;4.33;100.00;100912.38;6310731;28;20043;-79
2021/04/07 12:40:54;;;;;;;12.63;3.20;;;;;;;4.43;100.00;100902.59;6311772;28;20102;-79
2021/04/07 12:43:55;;;;;;;7.40;2.60;;;;;;;4.60;100.00;100900.41;6321364;28;20131;-78
2021/04/07 12:46:56;;;;;;;5.30;2.20;;;;;;;4.97;99.66;100905.47;6312012;28;20060;-78
2021/04/07 12:49:58;;;;;;;3.60;1.55;;;;;;;5.02;96.82;100905.34;6317714;28;20101;-79
2021/04/07 12:52:59;;;;;;;4.15;1.95;;;;;;;5.06;97.97;100899.16;6320109;28;20051;-81
2021/04/07 12:56:00;;;;;;;5.72;2.08;;;;;;;5.34;96.98;100900.06;6326430;28;20126;-79
2021/04/07 12:59:01;;;;;;;6.50;1.80;;;;;;;5.32;95.18;100899.28;6329295;28;20135;-80
2021/04/07 13:02:02;;;;;;;7.05;1.70;;;;;;;5.07;95.73;100898.25;6328174;28;20040;-79
2021/04/07 13:05:04;;;;;;;12.25;2.03;;;;;;;5.03;96.25;100907.06;6316535;28;20045;-79
2021/04/07 13:08:05;;;;;;;16.92;2.15;;;;;;;4.70;95.71;100912.28;6326558;28;20055;-78
2021/04/07 13:11:06;;;;;;;10.18;1.73;;;;;;;4.44;96.88;100925.13;6328418;28;20086;-79
2021/04/07 13:14:08;;;;;;;13.45;1.45;;;;;;;4.23;98.98;100926.50;6328843;28;20044;-79
2021/04/07 13:17:10;;;;;;;8.15;1.42;;;;;;;4.21;96.60;100917.88;6329375;28;20051;-80
2021/04/07 13:20:16;;;;;;;9.85;1.38;;;;;;;4.13;97.66;100927.59;6328845;28;20519;-80
2021/04/07 13:23:17;;;;;;;4.55;1.55;;;;;;;4.11;98.02;100919.84;6328235;28;20047;-85
2021/04/07 13:26:21;;;;;;;7.97;1.42;;;;;;;4.50;96.55;100919.78;6329371;28;20457;-84
2021/04/07 13:29:22;;;;;;;14.60;1.55;;;;;;;4.75;97.97;100913.00;6329532;28;20044;-84
2021/04/07 13:32:26;;;;;;;8.75;1.73;;;;;;;5.20;93.85;100907.44;6328086;28;20637;-84
2021/04/07 13:35:30;;;;;;;13.00;1.50;;;;;;;5.52;89.65;100916.06;6328981;28;20048;-81
2021/04/07 13:38:38;;;;;;;7.43;1.40;;;;;;;5.67;88.33;100914.75;6305156;28;20593;-79
2021/04/07 13:41:47;;;;;;;29.13;5.82;;;;;;;5.80;87.88;100919.53;6319451;28;20048;-82
2021/04/07 13:44:48;;;;;;;9.13;1.63;;;;;;;6.29;87.70;100919.78;6308794;28;20051;-78
2021/04/07 13:47:50;;;;;;;17.23;1.83;;;;;;;6.35;85.52;100909.97;6302902;28;20492;-79
2021/04/07 13:50:51;;;;;;;17.02;1.80;;;;;;;6.09;83.97;100916.06;6302972;28;20052;-77
2021/04/07 13:53:53;;;;;;;22.40;2.50;;;;;;;5.85;83.46;100915.03;6302795;28;20044;-78
2021/04/07 13:57:05;;;;;;;15.35;3.45;;;;;;;5.93;85.22;100911.38;6303644;28;20056;-78
2021/04/07 14:00:07;;;;;;;13.32;2.05;;;;;;;5.69;87.29;100965.13;6303339;28;20086;-79
2021/04/07 14:03:08;;;;;;;9.60;1.40;;;;;;;4.80;93.27;100947.59;6302517;28;20051;-78
2021/04/07 14:06:12;;;;;;;9.48;1.70;;;;;;;4.30;96.61;100944.50;6301768;28;20052;-78
2021/04/07 14:09:14;;;;;;;10.77;2.50;;;;;;;4.38;96.68;100941.75;6299520;28;20063;-77